createdAt,value
2023-05-10T00:03:25.229Z,13.31
2023-05-10T00:08:43.538Z,13.13
2023-05-10T00:14:02.140Z,13.13
2023-05-10T00:19:20.625Z,13.06
2023-05-10T00:24:39.187Z,13
2023-05-10T00:29:57.363Z,13
2023-05-10T00:35:16.027Z,13
2023-05-10T00:40:34.790Z,12.94
2023-05-10T00:45:53.415Z,12.81
2023-05-10T00:51:12.043Z,12.75
2023-05-10T00:56:30.853Z,12.69
2023-05-10T01:01:49.378Z,12.75
2023-05-10T01:07:11.989Z,12.63
2023-05-10T01:17:44.990Z,12.56
2023-05-10T01:23:03.543Z,12.56
2023-05-10T01:28:22.706Z,12.5
2023-05-10T01:33:41.061Z,12.56
2023-05-10T01:39:00.993Z,12.5
2023-05-10T01:44:19.933Z,12.5
2023-05-10T01:49:38.324Z,12.44
2023-05-10T01:54:56.887Z,12.63
2023-05-10T02:00:15.682Z,12.5
2023-05-10T02:05:34.092Z,12.44
2023-05-10T02:10:52.705Z,12.44
2023-05-10T02:16:11.400Z,12.37
2023-05-10T02:21:29.955Z,12.25
2023-05-10T02:26:48.365Z,12.25
2023-05-10T02:32:06.750Z,12.25
2023-05-10T02:37:25.131Z,12.25
2023-05-10T02:42:45.281Z,12.31
2023-05-10T02:48:04.069Z,12.37
2023-05-10T02:53:22.781Z,12.37
2023-05-10T02:58:41.420Z,12.37
2023-05-10T03:04:00.098Z,12.37
2023-05-10T03:09:18.823Z,12.31
2023-05-10T03:14:37.444Z,12.37
2023-05-10T03:19:56.348Z,12.31
2023-05-10T03:25:15.102Z,12.25
2023-05-10T03:30:33.694Z,12.44
2023-05-10T03:35:52.290Z,12.44
2023-05-10T03:41:10.611Z,12.5
2023-05-10T03:46:29.151Z,12.31
2023-05-10T03:51:47.232Z,12.25
2023-05-10T03:57:07.483Z,12.13
2023-05-10T04:02:26.103Z,11.94
2023-05-10T04:07:44.191Z,11.94
2023-05-10T04:13:02.897Z,11.81
2023-05-10T04:18:21.340Z,11.75
2023-05-10T04:23:39.687Z,11.69
2023-05-10T04:28:58.412Z,11.69
2023-05-10T04:34:16.901Z,11.69
2023-05-10T04:44:39.751Z,11.81
2023-05-10T04:49:58.360Z,11.94
2023-05-10T04:55:17.070Z,12.06
2023-05-10T05:00:38.599Z,12.19
2023-05-10T05:05:57.187Z,12.25
2023-05-10T05:11:15.842Z,12.37
2023-05-10T05:16:34.455Z,12.5
2023-05-10T05:21:53.150Z,12.56
2023-05-10T05:27:11.717Z,12.69
2023-05-10T05:32:30.534Z,12.75
2023-05-10T05:37:49.838Z,12.88
2023-05-10T05:43:08.243Z,12.88
2023-05-10T05:48:27.038Z,12.94
2023-05-10T05:53:45.622Z,13
2023-05-10T05:59:04.265Z,13.13
2023-05-10T06:04:23.030Z,13.25
2023-05-10T06:09:41.459Z,13.06
2023-05-10T06:15:00.079Z,13.06
2023-05-10T06:20:18.878Z,13.06
2023-05-10T06:25:37.776Z,13.25
2023-05-10T06:30:56.415Z,13.44
2023-05-10T06:36:15.312Z,13.38
2023-05-10T06:41:33.531Z,13.56
2023-05-10T06:46:52.205Z,13.44
2023-05-10T06:52:10.762Z,13.5
2023-05-10T06:57:31.541Z,13.31
2023-05-10T07:02:47.694Z,13.44
2023-05-10T07:08:05.951Z,13.5
2023-05-10T07:13:24.712Z,13.69
2023-05-10T07:18:43.046Z,13.88
2023-05-10T07:24:01.306Z,14.19
2023-05-10T07:29:19.999Z,14.38
2023-05-10T07:34:38.813Z,14.5
2023-05-10T07:39:57.554Z,14.87
2023-05-10T07:45:15.936Z,15.06
2023-05-10T07:50:34.702Z,15.19
2023-05-10T07:55:53.158Z,15.13
2023-05-10T08:01:11.348Z,15.13
2023-05-10T08:06:29.505Z,14.81
2023-05-10T08:11:48.145Z,15.13
2023-05-10T08:17:06.785Z,15.31
2023-05-10T08:22:25.645Z,15.25
2023-05-10T08:27:44.205Z,15.38
2023-05-10T08:33:02.746Z,15.19
2023-05-10T08:38:21.039Z,15.38
2023-05-10T08:43:39.910Z,15.94
2023-05-10T08:48:58.656Z,16
2023-05-10T08:54:16.741Z,15.69
2023-05-10T08:59:35.454Z,15.69
2023-05-10T09:04:53.999Z,15.25
2023-05-10T09:10:12.376Z,15.13
2023-05-10T09:15:30.757Z,15.06
2023-05-10T09:20:49.305Z,14.94
2023-05-10T09:26:07.835Z,14.87
2023-05-10T09:31:26.298Z,15.06
2023-05-10T09:36:44.679Z,14.87
2023-05-10T09:42:03.106Z,14.94
2023-05-10T09:47:21.925Z,15.25
2023-05-10T09:52:40.836Z,15.5
2023-05-10T09:57:59.897Z,15.56
2023-05-10T10:03:19.777Z,15.75
2023-05-10T10:08:38.408Z,15.94
2023-05-10T10:13:57.221Z,16
2023-05-10T10:19:15.965Z,16
2023-05-10T10:24:34.705Z,16.25
2023-05-10T10:29:52.858Z,15.88
2023-05-10T10:35:11.205Z,15.13
2023-05-10T10:40:30.858Z,15.06
2023-05-10T10:45:48.505Z,15.44
2023-05-10T10:51:07.429Z,15.94
2023-05-10T10:56:26.089Z,16.25
2023-05-10T11:01:45.108Z,16.62
2023-05-10T11:07:04.045Z,17.31
2023-05-10T11:12:22.878Z,16.81
2023-05-10T11:17:41.527Z,17.56
2023-05-10T11:23:00.687Z,18
2023-05-10T11:28:19.290Z,17.75
2023-05-10T11:33:37.788Z,17.37
2023-05-10T11:38:56.490Z,18.56
2023-05-10T11:44:15.081Z,18
2023-05-10T11:49:33.804Z,18.12
2023-05-10T11:54:52.432Z,17.81
2023-05-10T12:00:10.829Z,17.56
2023-05-10T12:05:29.778Z,18
2023-05-10T12:10:48.815Z,18.62
2023-05-10T12:16:07.507Z,17.75
2023-05-10T12:21:25.336Z,18.75
2023-05-10T12:26:45.023Z,18.75
2023-05-10T12:32:05.401Z,18.25
2023-05-10T12:37:23.489Z,18.06
2023-05-10T12:42:42.570Z,18.62
2023-05-10T12:48:02.639Z,18.62
2023-05-10T12:53:21.647Z,19.06
2023-05-10T12:58:39.655Z,18.37
2023-05-10T13:03:58.519Z,19.37
2023-05-10T13:09:17.576Z,19.19
2023-05-10T13:14:35.968Z,18.37
2023-05-10T13:19:53.766Z,17.94
2023-05-10T13:25:12.477Z,18.44
2023-05-10T13:30:31.066Z,18.37
2023-05-10T13:35:49.617Z,18.31
2023-05-10T13:41:08.429Z,19.5
2023-05-10T13:46:26.966Z,19.06
2023-05-10T13:51:45.156Z,19
2023-05-10T13:57:03.454Z,18.69
2023-05-10T14:02:22.405Z,18.62
2023-05-10T14:07:43.475Z,18.87
2023-05-10T14:13:01.788Z,19.37
2023-05-10T14:18:20.366Z,18.5
2023-05-10T14:23:38.526Z,18.94
2023-05-10T14:28:57.473Z,18.81
2023-05-10T14:34:16.278Z,19
2023-05-10T14:39:34.790Z,18.31
2023-05-10T14:44:53.579Z,18.44
2023-05-10T14:50:16.631Z,18.06
2023-05-10T14:55:30.451Z,17.94
2023-05-10T15:00:48.985Z,18.31
2023-05-10T15:06:07.690Z,18.31
2023-05-10T15:11:26.352Z,18.25
2023-05-10T15:16:44.892Z,18.06
2023-05-10T15:22:03.416Z,18
2023-05-10T15:27:22.077Z,18.25
2023-05-10T15:32:41.010Z,17.94
2023-05-10T15:37:59.579Z,18.25
2023-05-10T15:43:18.218Z,18.37
2023-05-10T15:48:37.001Z,19
2023-05-10T15:54:06.243Z,18.81
2023-05-10T15:59:15.984Z,18.69
2023-05-10T16:04:34.645Z,18.87
2023-05-10T16:09:53.179Z,18.75
2023-05-10T16:15:13.034Z,18.12
2023-05-10T16:20:31.713Z,18.62
2023-05-10T16:25:50.203Z,18.31
2023-05-10T16:31:08.476Z,18.25
2023-05-10T16:36:26.819Z,18.06
2023-05-10T16:41:44.701Z,18.12
2023-05-10T16:47:03.216Z,17.94
2023-05-10T16:52:21.476Z,17.94
2023-05-10T16:57:39.660Z,17.81
2023-05-10T17:02:58.593Z,17.75
2023-05-10T17:08:17.186Z,17.5
2023-05-10T17:13:35.555Z,17.44
2023-05-10T17:18:54.092Z,17.25
2023-05-10T17:24:12.537Z,17.12
2023-05-10T17:29:31.095Z,16.94
2023-05-10T17:34:49.301Z,16.81
2023-05-10T17:40:07.931Z,16.69
2023-05-10T17:45:26.108Z,16.56
2023-05-10T17:50:44.387Z,16.44
2023-05-10T17:56:03.073Z,16.25
2023-05-10T18:01:21.794Z,16.12
2023-05-10T18:06:39.905Z,16
2023-05-10T18:11:58.380Z,15.88
2023-05-10T18:17:16.982Z,15.69
2023-05-10T18:22:35.083Z,15.5
2023-05-10T18:27:53.683Z,15.44
2023-05-10T18:33:12.120Z,15.31
2023-05-10T18:38:30.372Z,15.13
2023-05-10T18:43:48.928Z,15
2023-05-10T18:49:07.767Z,15
2023-05-10T18:54:26.216Z,15
2023-05-10T18:59:44.848Z,14.69
2023-05-10T19:05:03.107Z,14.5
2023-05-10T19:10:21.580Z,14.44
2023-05-10T19:15:40.209Z,14.38
2023-05-10T19:21:01.554Z,14.38
2023-05-10T19:26:17.550Z,14.25
2023-05-10T19:31:36.170Z,13.94
2023-05-10T19:36:56.147Z,13.62
2023-05-10T19:42:14.872Z,13.62
2023-05-10T19:47:33.827Z,13.44
2023-05-10T19:52:52.133Z,13.31
2023-05-10T19:58:10.828Z,13.31
2023-05-10T20:03:31.074Z,13.25
2023-05-10T20:08:49.790Z,13.19
2023-05-10T20:14:08.419Z,13.13
2023-05-10T20:19:27.125Z,13.13
2023-05-10T20:24:45.894Z,13.06
2023-05-10T20:30:07.038Z,13.06
2023-05-10T20:35:23.257Z,12.94
2023-05-10T20:40:41.867Z,12.88
2023-05-10T20:46:00.259Z,12.75
2023-05-10T20:51:18.478Z,12.63
2023-05-10T20:56:36.760Z,12.44
2023-05-10T21:01:55.386Z,12.44
2023-05-10T21:07:13.850Z,12.37
2023-05-10T21:12:32.632Z,12.44
2023-05-10T21:17:51.268Z,12.5
2023-05-10T21:23:09.850Z,12.5
2023-05-10T21:28:28.259Z,12.44
2023-05-10T21:33:46.437Z,12.37
2023-05-10T21:39:05.157Z,12.31
2023-05-10T21:44:23.769Z,12.19
2023-05-10T21:49:43.919Z,12.06
2023-05-10T21:55:02.142Z,11.94
2023-05-10T22:00:20.736Z,11.69
2023-05-10T22:05:38.926Z,11.5
2023-05-10T22:10:57.272Z,11.44
2023-05-10T22:16:15.637Z,11.31
2023-05-10T22:21:33.729Z,11.25
2023-05-10T22:26:51.982Z,11.19
2023-05-10T22:32:10.391Z,11.06
2023-05-10T22:37:28.845Z,10.94
2023-05-10T22:42:47.127Z,11
2023-05-10T22:48:05.451Z,10.81
2023-05-10T22:53:23.681Z,10.88
2023-05-10T22:58:42.009Z,10.81
2023-05-10T23:04:00.527Z,10.88
2023-05-10T23:09:19.112Z,10.81
2023-05-10T23:14:38.163Z,10.75
2023-05-10T23:19:56.862Z,10.69
2023-05-10T23:25:15.400Z,10.69
2023-05-10T23:30:33.832Z,10.5
2023-05-10T23:35:52.048Z,10.38
2023-05-10T23:41:10.379Z,10.38
2023-05-10T23:46:29.208Z,10.31
2023-05-10T23:51:47.888Z,10.31
2023-05-10T23:57:06.629Z,10.38
